createdAt,value
2022-08-26T13:28:29.738Z,38.16
2022-08-26T13:30:56.121Z,38.29
2022-08-26T13:33:22.670Z,37.01
2022-08-26T13:35:49.211Z,37.19
2022-08-26T13:38:18.571Z,36.19
2022-08-26T13:40:59.801Z,36.24
2022-08-26T13:43:27.765Z,36.26
2022-08-26T13:45:54.499Z,35.20
2022-08-26T13:48:23.334Z,34.49
2022-08-26T13:50:50.571Z,35.16
2022-08-26T13:53:17.635Z,34.72
2022-08-26T13:55:44.475Z,35.15
2022-08-26T13:58:11.679Z,34.06
2022-08-26T14:00:39.715Z,34.87
2022-08-26T14:03:10.223Z,34.46
2022-08-26T14:05:39.047Z,34.53
2022-08-26T14:08:05.655Z,34.56
2022-08-26T14:10:32.582Z,33.75
2022-08-26T14:12:59.066Z,34.00
2022-08-26T14:15:25.824Z,34.12
2022-08-26T14:17:54.168Z,33.52
2022-08-26T14:20:25.805Z,34.37
2022-08-26T14:23:12.622Z,34.38
2022-08-26T14:25:39.061Z,34.29
2022-08-26T14:28:05.459Z,35.79
2022-08-26T14:30:31.998Z,35.45
2022-08-26T14:33:01.712Z,36.55
2022-08-26T14:35:30.328Z,36.66
2022-08-26T14:37:57.375Z,36.41
2022-08-26T14:40:28.415Z,36.98
2022-08-26T14:42:55.045Z,36.26
2022-08-26T14:45:27.264Z,36.93
2022-08-26T14:47:56.478Z,37.84
2022-08-26T14:50:25.142Z,37.28
2022-08-26T14:53:27.645Z,37.52
2022-08-26T14:55:54.029Z,37.05
2022-08-26T14:58:20.344Z,37.23
2022-08-26T15:00:46.672Z,36.62
2022-08-26T15:05:47.980Z,35.84
2022-08-26T15:08:14.730Z,35.70
2022-08-26T15:10:41.504Z,35.83
2022-08-26T15:13:07.832Z,35.04
2022-08-26T15:15:34.269Z,35.97
2022-08-26T15:18:00.618Z,36.08
2022-08-26T15:20:27.392Z,35.74
2022-08-26T15:22:53.730Z,36.17
2022-08-26T15:25:20.132Z,36.95
2022-08-26T15:27:46.549Z,38.39
2022-08-26T15:30:13.217Z,37.59
2022-08-26T15:32:39.685Z,39.44
2022-08-26T15:35:09.030Z,41.49
2022-08-26T15:37:36.152Z,40.33
2022-08-26T15:40:03.622Z,38.67
2022-08-26T15:42:30.119Z,38.41
2022-08-26T15:44:56.607Z,39.24
2022-08-26T15:47:23.852Z,39.47
2022-08-26T15:49:50.247Z,38.80
2022-08-26T15:52:17.038Z,39.03
2022-08-26T15:54:43.503Z,39.50
2022-08-26T15:57:12.338Z,39.74
2022-08-26T15:59:40.094Z,42.47
2022-08-26T16:02:07.060Z,41.99
2022-08-26T16:04:33.495Z,42.81
2022-08-26T16:07:00.085Z,43.38
2022-08-26T16:09:27.681Z,43.46
2022-08-26T16:11:54.897Z,44.69
2022-08-26T16:14:21.267Z,45.42
2022-08-26T16:16:47.863Z,46.48
2022-08-26T16:19:14.249Z,47.16
2022-08-26T16:21:41.435Z,48.50
2022-08-26T16:24:07.843Z,48.15
2022-08-26T16:26:36.987Z,49.63
2022-08-26T16:29:07.511Z,49.45
2022-08-26T16:31:33.946Z,50.34
2022-08-26T16:34:00.472Z,49.94
2022-08-26T16:36:27.404Z,49.08
2022-08-26T16:38:56.071Z,48.97
2022-08-26T16:41:27.409Z,49.12
2022-08-26T16:43:54.460Z,51.07
2022-08-26T16:46:25.368Z,51.53
2022-08-26T16:48:54.181Z,51.59
2022-08-26T16:51:22.946Z,52.05
2022-08-26T16:53:51.155Z,52.38
2022-08-26T16:56:20.586Z,53.83
2022-08-26T16:58:50.519Z,55.03
2022-08-26T17:01:17.463Z,54.85
2022-08-26T17:03:43.882Z,55.92
2022-08-26T17:06:10.622Z,55.65
2022-08-26T17:08:38.305Z,55.29
2022-08-26T17:11:05.334Z,56.24
2022-08-26T17:13:35.207Z,55.53
2022-08-26T17:16:04.613Z,56.24
2022-08-26T17:18:32.309Z,56.43
2022-08-26T17:21:07.038Z,55.13
2022-08-26T17:23:34.089Z,55.33
2022-08-26T17:26:00.662Z,54.86
2022-08-26T17:28:27.322Z,54.02
2022-08-26T17:30:56.246Z,55.12
2022-08-26T17:33:24.782Z,55.62
2022-08-26T17:35:52.890Z,57.22
2022-08-26T17:38:19.703Z,56.15
2022-08-26T17:40:46.078Z,55.67
2022-08-26T17:43:12.720Z,56.01
2022-08-26T17:45:40.597Z,56.19
2022-08-26T17:48:08.402Z,55.61
2022-08-26T17:50:35.548Z,55.51
2022-08-26T17:53:01.902Z,55.49
2022-08-26T17:55:29.069Z,55.57
2022-08-26T17:57:55.442Z,55.95
2022-08-26T18:00:26.380Z,55.83
2022-08-26T18:02:56.696Z,57.33
2022-08-26T18:05:23.287Z,57.76
2022-08-26T18:07:49.853Z,57.94
2022-08-26T18:10:18.929Z,57.80
2022-08-26T18:12:45.409Z,58.04
2022-08-26T18:15:15.542Z,56.93
2022-08-26T18:17:42.523Z,57.18
2022-08-26T18:20:12.720Z,58.96
2022-08-26T18:22:39.511Z,59.36
2022-08-26T18:25:07.331Z,59.03
2022-08-26T18:27:35.976Z,59.00
2022-08-26T18:30:05.005Z,58.33
2022-08-26T18:32:31.443Z,58.67
2022-08-26T18:34:57.983Z,59.10
2022-08-26T18:37:25.791Z,60.26
2022-08-26T18:39:54.496Z,60.14
2022-08-26T18:42:20.976Z,60.42
2022-08-26T18:44:50.731Z,59.48
2022-08-26T18:47:17.535Z,60.70
2022-08-26T18:49:44.142Z,61.66
2022-08-26T18:52:10.681Z,62.28
2022-08-26T18:54:37.115Z,62.92
2022-08-26T18:57:03.756Z,63.10
2022-08-26T18:59:33.465Z,63.48
2022-08-26T19:02:00.074Z,62.54
2022-08-26T19:04:27.020Z,64.36
2022-08-26T19:06:53.826Z,65.79
2022-08-26T19:09:20.963Z,67.55
2022-08-26T19:11:49.669Z,68.37
2022-08-26T19:14:16.675Z,69.50
2022-08-26T19:16:45.929Z,69.87
2022-08-26T19:19:13.291Z,70.35
2022-08-26T19:21:39.876Z,71.16
2022-08-26T19:24:12.205Z,71.37
2022-08-26T19:26:39.022Z,71.78
2022-08-26T19:29:05.754Z,71.98
2022-08-26T19:31:32.199Z,71.88
2022-08-26T19:33:58.943Z,72.13
2022-08-26T19:36:26.506Z,71.94
2022-08-26T19:38:53.578Z,73.55
2022-08-26T19:41:26.652Z,73.39
2022-08-26T19:44:06.972Z,74.88
2022-08-26T19:46:33.511Z,74.23
2022-08-26T19:48:59.979Z,74.56
2022-08-26T19:51:32.973Z,73.80
2022-08-26T19:56:30.268Z,73.45
2022-08-26T19:58:57.088Z,73.07
2022-08-26T20:01:23.788Z,72.89
2022-08-26T20:03:50.368Z,73.18
2022-08-26T20:06:16.911Z,73.67
2022-08-26T20:08:44.501Z,74.96
2022-08-26T20:11:15.727Z,74.93
2022-08-26T20:13:43.338Z,75.89
2022-08-26T20:16:11.794Z,76.52
2022-08-26T20:21:17.999Z,76.13
2022-08-26T20:23:44.566Z,76.45
2022-08-26T20:26:11.016Z,77.31
2022-08-26T20:28:37.494Z,77.74
2022-08-26T20:31:04.035Z,79.17
2022-08-26T20:33:31.585Z,78.95
2022-08-26T20:36:13.087Z,78.21
2022-08-26T20:38:39.400Z,78.46
2022-08-26T20:41:05.801Z,78.43
2022-08-26T20:43:32.466Z,77.47
2022-08-26T20:45:59.494Z,77.17
2022-08-26T20:48:25.854Z,76.20
2022-08-26T20:50:56.943Z,75.49
2022-08-26T20:53:24.286Z,74.78
2022-08-26T20:55:53.727Z,75.15
2022-08-26T20:58:23.025Z,76.37
2022-08-26T21:00:49.446Z,76.17
2022-08-26T21:03:15.840Z,75.39
2022-08-26T21:05:42.450Z,75.83
2022-08-26T21:08:09.782Z,76.09
2022-08-26T21:10:39.208Z,74.56
2022-08-26T21:13:05.545Z,74.19
2022-08-26T21:15:31.889Z,74.19
2022-08-26T21:17:59.060Z,73.66
2022-08-26T21:20:25.483Z,74.77
2022-08-26T21:22:52.446Z,75.62
2022-08-26T21:25:18.942Z,74.42
2022-08-26T21:27:45.444Z,76.03
2022-08-26T21:30:15.094Z,74.58
2022-08-26T21:32:41.854Z,73.61
2022-08-26T21:35:08.905Z,73.98
2022-08-26T21:37:35.231Z,73.43
2022-08-26T21:40:05.310Z,74.72
2022-08-26T21:42:33.960Z,74.14
2022-08-26T21:45:01.597Z,74.03
2022-08-26T21:47:28.460Z,74.09
2022-08-26T21:49:54.821Z,73.13
2022-08-26T21:52:21.354Z,73.05
2022-08-26T21:54:49.299Z,72.96
2022-08-26T21:57:16.321Z,73.61
2022-08-26T21:59:42.699Z,72.95
2022-08-26T22:02:09.157Z,74.62
2022-08-26T22:04:36.042Z,73.90
2022-08-26T22:07:03.345Z,73.26
2022-08-26T22:09:31.528Z,72.69
2022-08-26T22:11:58.664Z,71.52
2022-08-26T22:14:30.383Z,71.02
2022-08-26T22:16:59.052Z,71.01
2022-08-26T22:19:25.594Z,71.76
2022-08-26T22:21:54.701Z,73.16
2022-08-26T22:24:23.078Z,73.78
2022-08-26T22:26:50.245Z,72.82
2022-08-26T22:29:18.539Z,72.11
2022-08-26T22:31:45.238Z,72.09
2022-08-26T22:34:17.082Z,72.41
2022-08-26T22:36:46.456Z,71.52
2022-08-26T22:39:15.342Z,71.15
2022-08-26T22:41:43.287Z,70.50
2022-08-26T22:44:11.513Z,70.00
2022-08-26T22:46:38.515Z,69.80
2022-08-26T22:49:05.340Z,70.37
2022-08-26T22:51:32.022Z,70.09
2022-08-26T22:53:58.372Z,69.61
2022-08-26T22:56:24.761Z,69.56
2022-08-26T22:58:51.156Z,70.07
2022-08-26T23:01:17.522Z,69.48
2022-08-26T23:03:44.751Z,69.69
2022-08-26T23:06:11.560Z,69.40
2022-08-26T23:08:39.420Z,69.46
2022-08-26T23:11:12.805Z,69.75
2022-08-26T23:13:39.183Z,69.33
2022-08-26T23:16:09.508Z,69.58
2022-08-26T23:18:36.356Z,69.97
2022-08-26T23:21:02.732Z,69.85
2022-08-26T23:23:29.063Z,69.04
2022-08-26T23:25:55.667Z,69.42
2022-08-26T23:28:22.917Z,69.65
2022-08-26T23:30:49.992Z,69.64
2022-08-26T23:33:16.606Z,69.79
2022-08-26T23:35:43.854Z,69.60
2022-08-26T23:38:14.162Z,69.37
2022-08-26T23:40:41.271Z,68.89
2022-08-26T23:43:11.167Z,68.86
2022-08-26T23:45:37.667Z,68.95
2022-08-26T23:48:04.467Z,68.81
2022-08-26T23:50:50.084Z,69.40
2022-08-26T23:53:19.881Z,70.28
2022-08-26T23:55:48.889Z,72.18
2022-08-26T23:58:17.697Z,74.70
